createdAt,value
2023-04-15T00:01:01.398Z,63.95
2023-04-15T00:03:29.958Z,62.46
2023-04-15T00:05:58.568Z,62.23
2023-04-15T00:08:25.740Z,61.94
2023-04-15T00:10:53.174Z,61.88
2023-04-15T00:13:20.411Z,60.52
2023-04-15T00:15:48.144Z,60.43
2023-04-15T00:18:15.182Z,60.37
2023-04-15T00:20:42.022Z,62.07
2023-04-15T00:23:08.889Z,61.71
2023-04-15T00:25:35.939Z,62.00
2023-04-15T00:28:02.895Z,63.28
2023-04-15T00:30:29.965Z,61.96
2023-04-15T00:32:57.056Z,61.00
2023-04-15T00:35:24.239Z,64.38
2023-04-15T00:37:51.686Z,61.61
2023-04-15T00:40:21.249Z,62.20
2023-04-15T00:42:48.265Z,62.51
2023-04-15T00:45:15.776Z,62.98
2023-04-15T00:47:44.561Z,63.98
2023-04-15T00:50:12.924Z,63.67
2023-04-15T00:52:40.907Z,65.23
2023-04-15T00:55:11.006Z,64.87
2023-04-15T00:57:39.967Z,64.18
2023-04-15T01:02:59.728Z,63.07
2023-04-15T01:05:27.154Z,62.69
2023-04-15T01:07:55.300Z,63.80
2023-04-15T01:10:22.432Z,64.08
2023-04-15T01:12:49.694Z,64.49
2023-04-15T01:15:16.735Z,65.99
2023-04-15T01:17:43.700Z,66.42
2023-04-15T01:20:12.401Z,64.64
2023-04-15T01:22:39.688Z,64.49
2023-04-15T01:25:15.812Z,64.87
2023-04-15T01:27:42.909Z,63.93
2023-04-15T01:30:10.755Z,63.14
2023-04-15T01:32:38.566Z,63.04
2023-04-15T01:35:06.108Z,63.38
2023-04-15T01:37:33.377Z,62.90
2023-04-15T01:40:00.400Z,62.85
2023-04-15T01:42:27.907Z,62.88
2023-04-15T01:44:54.989Z,63.20
2023-04-15T01:47:22.698Z,63.01
2023-04-15T01:49:49.729Z,65.31
2023-04-15T01:52:16.627Z,63.66
2023-04-15T01:54:43.615Z,63.38
2023-04-15T01:57:10.489Z,65.16
2023-04-15T01:59:37.493Z,66.27
2023-04-15T02:02:04.924Z,65.07
2023-04-15T02:04:32.131Z,64.02
2023-04-15T02:06:59.021Z,64.28
2023-04-15T02:09:25.997Z,64.11
2023-04-15T02:11:54.422Z,63.72
2023-04-15T02:14:21.638Z,64.44
2023-04-15T02:16:48.606Z,64.28
2023-04-15T02:19:16.186Z,65.06
2023-04-15T02:21:42.968Z,65.33
2023-04-15T02:24:10.018Z,65.89
2023-04-15T02:26:36.855Z,66.17
2023-04-15T02:29:03.939Z,66.04
2023-04-15T02:31:31.039Z,66.47
2023-04-15T02:33:57.888Z,66.92
2023-04-15T02:36:24.861Z,66.63
2023-04-15T02:38:51.877Z,67.08
2023-04-15T02:41:18.896Z,66.84
2023-04-15T02:43:45.835Z,67.27
2023-04-15T02:46:15.047Z,67.88
2023-04-15T02:48:42.054Z,68.04
2023-04-15T02:51:31.419Z,67.90
2023-04-15T02:53:58.687Z,68.27
2023-04-15T02:56:25.810Z,67.75
2023-04-15T02:58:56.284Z,67.53
2023-04-15T03:01:23.176Z,68.61
2023-04-15T03:03:50.276Z,69.67
2023-04-15T03:06:17.352Z,71.18
2023-04-15T03:08:44.244Z,71.76
2023-04-15T03:11:11.136Z,71.33
2023-04-15T03:13:39.767Z,72.60
2023-04-15T03:16:07.353Z,73.71
2023-04-15T03:18:34.213Z,74.54
2023-04-15T03:21:01.253Z,73.62
2023-04-15T03:23:28.195Z,73.18
2023-04-15T03:25:57.344Z,73.00
2023-04-15T03:28:24.809Z,73.36
2023-04-15T03:30:51.828Z,74.08
2023-04-15T03:33:18.698Z,74.26
2023-04-15T03:35:45.709Z,73.24
2023-04-15T03:38:12.560Z,72.76
2023-04-15T03:40:42.359Z,72.60
2023-04-15T03:43:09.390Z,72.04
2023-04-15T03:45:36.397Z,72.65
2023-04-15T03:48:16.479Z,73.46
2023-04-15T03:50:44.462Z,73.96
2023-04-15T03:53:11.462Z,74.47
2023-04-15T03:55:38.494Z,73.10
2023-04-15T03:58:05.436Z,72.89
2023-04-15T04:00:32.733Z,73.32
2023-04-15T04:02:59.766Z,73.43
2023-04-15T04:05:26.786Z,73.14
2023-04-15T04:07:53.661Z,73.15
2023-04-15T04:10:20.492Z,71.79
2023-04-15T04:12:47.365Z,72.47
2023-04-15T04:15:14.291Z,72.02
2023-04-15T04:17:41.533Z,71.30
2023-04-15T04:20:08.960Z,72.14
2023-04-15T04:22:42.708Z,70.25
2023-04-15T04:25:10.578Z,70.29
2023-04-15T04:27:37.610Z,70.53
2023-04-15T04:30:05.689Z,68.24
2023-04-15T04:32:32.654Z,68.94
2023-04-15T04:34:59.602Z,67.36
2023-04-15T04:37:26.750Z,67.04
2023-04-15T04:39:53.618Z,65.68
2023-04-15T04:42:20.568Z,66.05
2023-04-15T04:44:47.463Z,65.96
2023-04-15T04:47:14.340Z,66.07
2023-04-15T04:49:41.749Z,65.43
2023-04-15T04:52:09.273Z,66.81
2023-04-15T04:54:36.421Z,68.71
2023-04-15T04:57:03.293Z,69.00
2023-04-15T04:59:30.195Z,68.55
2023-04-15T05:01:57.185Z,67.68
2023-04-15T05:04:24.215Z,67.80
2023-04-15T05:06:51.107Z,69.12
2023-04-15T05:09:18.069Z,67.12
2023-04-15T05:11:44.953Z,67.52
2023-04-15T05:14:11.900Z,67.90
2023-04-15T05:16:38.786Z,69.59
2023-04-15T05:19:05.865Z,66.76
2023-04-15T05:21:32.739Z,68.52
2023-04-15T05:23:59.554Z,68.09
2023-04-15T05:26:27.692Z,68.70
2023-04-15T05:28:55.299Z,68.84
2023-04-15T05:31:22.265Z,70.97
2023-04-15T05:33:49.343Z,70.03
2023-04-15T05:36:16.205Z,68.44
2023-04-15T05:38:43.039Z,66.24
2023-04-15T05:41:09.904Z,63.74
2023-04-15T05:43:36.734Z,64.19
2023-04-15T05:46:03.572Z,63.11
2023-04-15T05:48:30.741Z,62.01
2023-04-15T05:50:58.089Z,60.82
2023-04-15T05:53:24.952Z,62.27
2023-04-15T05:55:51.879Z,60.29
2023-04-15T05:58:18.725Z,60.77
2023-04-15T06:00:46.417Z,59.62
2023-04-15T06:03:13.619Z,59.99
2023-04-15T06:05:40.836Z,59.79
2023-04-15T06:08:08.485Z,59.67
2023-04-15T06:10:36.959Z,59.38
2023-04-15T06:13:04.465Z,56.84
2023-04-15T06:15:31.914Z,56.74
2023-04-15T06:17:58.926Z,56.08
2023-04-15T06:20:25.839Z,55.57
2023-04-15T06:22:52.817Z,52.63
2023-04-15T06:25:20.114Z,51.29
2023-04-15T06:27:55.953Z,47.20
2023-04-15T06:30:24.410Z,48.57
2023-04-15T06:32:51.452Z,46.75
2023-04-15T06:35:18.589Z,47.63
2023-04-15T06:37:57.003Z,45.71
2023-04-15T06:40:23.845Z,45.40
2023-04-15T06:43:05.106Z,44.88
2023-04-15T06:45:32.545Z,45.89
2023-04-15T06:47:59.568Z,43.05
2023-04-15T06:50:27.390Z,42.25
2023-04-15T06:52:56.440Z,41.48
2023-04-15T06:55:23.399Z,41.20
2023-04-15T06:58:04.385Z,41.33
2023-04-15T07:00:31.452Z,41.10
2023-04-15T07:02:58.376Z,40.71
2023-04-15T07:05:25.665Z,42.13
2023-04-15T07:07:53.142Z,39.90
2023-04-15T07:10:20.537Z,38.76
2023-04-15T07:12:49.232Z,39.67
2023-04-15T07:15:26.185Z,40.56
2023-04-15T07:17:53.089Z,39.24
2023-04-15T07:20:20.208Z,40.91
2023-04-15T07:22:47.019Z,39.31
2023-04-15T07:25:13.960Z,39.90
2023-04-15T07:27:40.922Z,38.27
2023-04-15T07:30:12.857Z,37.30
2023-04-15T07:32:39.939Z,36.28
2023-04-15T07:35:07.065Z,35.41
2023-04-15T07:37:34.866Z,35.64
2023-04-15T07:40:02.297Z,36.09
2023-04-15T07:42:40.739Z,36.75
2023-04-15T07:45:09.668Z,34.64
2023-04-15T07:47:36.736Z,36.61
2023-04-15T07:50:03.732Z,37.88
2023-04-15T07:52:40.660Z,37.64
2023-04-15T07:55:11.055Z,34.40
2023-04-15T07:58:18.104Z,36.37
2023-04-15T08:00:47.053Z,36.42
2023-04-15T08:03:14.036Z,36.67
2023-04-15T08:06:09.541Z,37.18
2023-04-15T08:08:36.837Z,35.20
2023-04-15T08:11:03.679Z,34.88
2023-04-15T08:13:30.771Z,33.11
2023-04-15T08:16:23.022Z,34.28
2023-04-15T08:18:51.740Z,36.25
2023-04-15T08:21:20.144Z,33.58
2023-04-15T08:23:48.545Z,34.08
2023-04-15T08:26:15.748Z,34.64
2023-04-15T08:28:49.274Z,30.42
2023-04-15T08:31:17.769Z,32.26
2023-04-15T08:33:45.310Z,29.81
2023-04-15T08:36:12.353Z,31.22
2023-04-15T08:38:39.253Z,30.24
2023-04-15T08:41:23.692Z,30.89
2023-04-15T08:43:58.978Z,33.53
2023-04-15T08:46:26.924Z,33.43
2023-04-15T08:48:57.313Z,34.33
2023-04-15T08:51:25.953Z,34.71
2023-04-15T08:53:53.361Z,34.94
2023-04-15T08:56:25.382Z,34.41
2023-04-15T08:58:53.381Z,36.30
2023-04-15T09:01:21.263Z,36.21
2023-04-15T09:03:50.527Z,35.30
2023-04-15T09:06:18.138Z,35.59
2023-04-15T09:08:49.733Z,33.74
2023-04-15T09:11:20.019Z,34.65
2023-04-15T09:13:47.362Z,33.93
2023-04-15T09:16:14.534Z,34.40
2023-04-15T09:18:41.377Z,33.03
2023-04-15T09:21:12.889Z,32.22
2023-04-15T09:23:42.067Z,32.33
2023-04-15T09:26:08.994Z,31.81
2023-04-15T09:28:42.699Z,31.39
2023-04-15T09:31:10.838Z,31.21
2023-04-15T09:33:55.250Z,31.40
2023-04-15T09:36:22.153Z,31.30
2023-04-15T09:38:56.837Z,30.78
2023-04-15T09:41:25.098Z,31.03
2023-04-15T09:43:52.585Z,34.67
2023-04-15T09:46:19.740Z,37.77
2023-04-15T09:48:46.884Z,40.16
2023-04-15T09:51:14.395Z,40.36
2023-04-15T09:53:41.425Z,40.44
2023-04-15T09:56:09.515Z,41.37
2023-04-15T09:58:38.903Z,41.09
2023-04-15T10:01:10.189Z,40.00
2023-04-15T10:03:37.749Z,39.90
2023-04-15T10:06:05.817Z,40.12
2023-04-15T10:08:35.154Z,40.09
2023-04-15T10:11:03.465Z,40.61
2023-04-15T10:13:33.540Z,40.81
2023-04-15T10:16:21.603Z,40.97
2023-04-15T10:18:55.485Z,40.05
2023-04-15T10:21:23.860Z,40.09
2023-04-15T10:23:55.190Z,40.11
2023-04-15T10:26:22.370Z,40.39
2023-04-15T10:28:50.181Z,40.65
2023-04-15T10:31:18.646Z,40.30
2023-04-15T10:33:47.658Z,41.12
2023-04-15T10:36:15.564Z,39.83
2023-04-15T10:38:48.618Z,38.73
2023-04-15T10:41:22.839Z,39.02
2023-04-15T10:44:09.179Z,39.06
2023-04-15T10:46:42.396Z,38.92
2023-04-15T10:49:18.213Z,38.70
2023-04-15T10:51:52.995Z,40.38
2023-04-15T10:54:39.068Z,39.04
2023-04-15T10:57:08.522Z,37.92
2023-04-15T11:00:06.815Z,38.39
2023-04-15T11:02:44.130Z,38.58
2023-04-15T11:05:42.275Z,38.39
2023-04-15T11:08:10.786Z,38.18
2023-04-15T11:10:37.534Z,39.39
2023-04-15T11:13:27.390Z,40.51
2023-04-15T11:15:58.496Z,39.66
2023-04-15T11:18:28.711Z,39.30
2023-04-15T11:21:01.389Z,36.98
2023-04-15T11:23:38.266Z,37.48
2023-04-15T11:26:10.015Z,38.77
2023-04-15T11:28:38.926Z,38.08
2023-04-15T11:31:08.835Z,37.32
2023-04-15T11:33:35.833Z,37.63
2023-04-15T11:36:04.401Z,39.09
2023-04-15T11:38:31.789Z,36.91
2023-04-15T11:40:58.930Z,36.05
2023-04-15T11:43:25.925Z,35.49
2023-04-15T11:45:56.553Z,36.30
2023-04-15T11:48:29.176Z,35.69
2023-04-15T11:51:07.301Z,34.43
2023-04-15T11:53:49.136Z,31.75
2023-04-15T11:56:23.246Z,33.55
2023-04-15T11:59:22.958Z,33.38
2023-04-15T12:01:52.552Z,32.42
2023-04-15T12:04:25.419Z,34.44
2023-04-15T12:06:53.178Z,33.36
2023-04-15T12:09:25.384Z,31.41
2023-04-15T12:11:55.680Z,32.73
2023-04-15T12:14:24.527Z,32.08
2023-04-15T12:17:18.137Z,31.92
2023-04-15T12:19:48.627Z,31.75
2023-04-15T12:22:38.229Z,32.63
2023-04-15T12:25:05.486Z,32.73
2023-04-15T12:27:32.520Z,32.63
2023-04-15T12:30:06.458Z,33.68
2023-04-15T12:32:35.691Z,32.35
2023-04-15T12:35:02.565Z,32.12
2023-04-15T12:37:29.443Z,32.96
2023-04-15T12:39:56.354Z,33.28
2023-04-15T12:42:23.136Z,32.49
2023-04-15T12:44:49.992Z,33.52
2023-04-15T12:47:17.008Z,33.10
2023-04-15T12:49:43.968Z,35.06
2023-04-15T12:52:10.966Z,35.39
2023-04-15T12:54:37.847Z,34.95
2023-04-15T12:57:07.710Z,35.50
2023-04-15T12:59:37.696Z,34.25
2023-04-15T13:02:04.867Z,33.71
2023-04-15T13:04:32.192Z,34.67
2023-04-15T13:06:59.344Z,33.44
2023-04-15T13:09:26.554Z,33.86
2023-04-15T13:11:54.662Z,34.55
2023-04-15T13:14:38.817Z,34.19
2023-04-15T13:17:10.305Z,34.81
2023-04-15T13:19:37.306Z,34.60
2023-04-15T13:22:04.279Z,33.47
2023-04-15T13:24:31.118Z,33.22
2023-04-15T13:26:59.364Z,33.33
2023-04-15T13:29:26.759Z,33.10
2023-04-15T13:31:53.643Z,33.09
2023-04-15T13:34:20.596Z,33.29
2023-04-15T13:36:48.488Z,33.53
2023-04-15T13:39:15.470Z,33.91
2023-04-15T13:41:42.782Z,33.72
2023-04-15T13:44:09.707Z,33.64
2023-04-15T13:46:37.937Z,33.58
2023-04-15T13:49:04.800Z,33.42
2023-04-15T13:51:32.058Z,32.65
2023-04-15T13:53:58.949Z,33.30
2023-04-15T13:56:26.173Z,33.43
2023-04-15T13:58:59.043Z,33.95
2023-04-15T14:01:41.458Z,32.26
2023-04-15T14:04:18.439Z,33.08
2023-04-15T14:06:45.531Z,33.09
2023-04-15T14:09:12.308Z,33.97
2023-04-15T14:11:39.828Z,32.73
2023-04-15T14:14:06.871Z,33.40
2023-04-15T14:16:34.574Z,33.76
2023-04-15T14:19:02.660Z,32.51
2023-04-15T14:21:40.663Z,33.32
2023-04-15T14:24:07.654Z,34.19
2023-04-15T14:26:34.588Z,35.66
2023-04-15T14:29:27.247Z,33.48
2023-04-15T14:32:04.334Z,32.79
2023-04-15T14:34:39.581Z,34.15
2023-04-15T14:37:06.779Z,32.62
2023-04-15T14:39:33.603Z,32.55
2023-04-15T14:42:00.557Z,34.07
2023-04-15T14:44:27.450Z,34.35
2023-04-15T14:46:55.008Z,34.33
2023-04-15T14:49:21.991Z,34.10
2023-04-15T14:51:48.852Z,34.28
2023-04-15T14:54:15.803Z,34.12
2023-04-15T14:57:07.941Z,34.41
2023-04-15T14:59:36.813Z,34.21
2023-04-15T15:02:04.149Z,35.32
2023-04-15T15:04:33.554Z,34.56
2023-04-15T15:10:49.402Z,34.66
2023-04-15T15:13:18.019Z,34.36
2023-04-15T15:15:45.575Z,35.40
2023-04-15T15:18:12.483Z,35.53
2023-04-15T15:20:39.405Z,35.99
2023-04-15T15:23:06.294Z,35.37
2023-04-15T15:25:35.197Z,34.79
2023-04-15T15:28:02.046Z,36.11
2023-04-15T15:30:29.062Z,35.13
2023-04-15T15:33:03.972Z,38.23
2023-04-15T15:35:31.106Z,37.10
2023-04-15T15:38:00.787Z,38.76
2023-04-15T15:40:27.705Z,36.38
2023-04-15T15:42:54.507Z,37.51
2023-04-15T15:45:21.458Z,36.94
2023-04-15T15:47:48.337Z,36.75
2023-04-15T15:50:36.910Z,38.14
2023-04-15T15:53:03.727Z,37.92
2023-04-15T15:55:32.884Z,37.19
2023-04-15T15:58:07.894Z,38.65
2023-04-15T16:00:43.146Z,39.42
2023-04-15T16:03:35.432Z,38.57
2023-04-15T16:06:02.386Z,39.41
2023-04-15T16:08:29.244Z,39.73
2023-04-15T16:10:56.235Z,37.96
2023-04-15T16:13:23.327Z,37.44
2023-04-15T16:15:59.386Z,37.58
2023-04-15T16:18:26.237Z,38.70
2023-04-15T16:20:53.099Z,37.46
2023-04-15T16:23:20.162Z,38.54
2023-04-15T16:25:47.023Z,37.68
2023-04-15T16:28:25.177Z,38.78
2023-04-15T16:30:53.319Z,37.88
2023-04-15T16:33:20.403Z,39.37
2023-04-15T16:35:47.424Z,39.13
2023-04-15T16:38:14.351Z,39.24
2023-04-15T16:40:41.428Z,37.95
2023-04-15T16:43:11.279Z,37.76
2023-04-15T16:45:38.609Z,37.51
2023-04-15T16:48:05.954Z,37.38
2023-04-15T16:50:32.937Z,37.08
2023-04-15T16:53:11.007Z,37.08
2023-04-15T16:56:08.056Z,37.35
2023-04-15T16:58:37.216Z,37.54
2023-04-15T17:01:04.283Z,37.83
2023-04-15T17:03:34.421Z,38.26
2023-04-15T17:06:01.494Z,38.16
2023-04-15T17:08:34.523Z,38.42
2023-04-15T17:11:12.907Z,39.04
2023-04-15T17:13:39.762Z,39.63
2023-04-15T17:16:10.843Z,43.21
2023-04-15T17:18:38.818Z,44.15
2023-04-15T17:24:46.637Z,44.83
2023-04-15T17:27:13.455Z,44.60
2023-04-15T17:29:40.269Z,46.30
2023-04-15T17:32:08.521Z,46.73
2023-04-15T17:34:49.714Z,46.63
2023-04-15T17:37:18.733Z,48.53
2023-04-15T17:39:45.814Z,49.82
2023-04-15T17:42:13.837Z,49.59
2023-04-15T17:44:46.199Z,50.17
2023-04-15T17:47:21.950Z,52.83
2023-04-15T17:49:48.863Z,52.95
2023-04-15T17:52:15.716Z,52.94
2023-04-15T17:54:42.688Z,52.42
2023-04-15T17:57:09.857Z,52.52
2023-04-15T17:59:36.755Z,52.84
2023-04-15T18:02:04.208Z,53.19
2023-04-15T18:04:31.271Z,54.23
2023-04-15T18:06:58.237Z,54.13
2023-04-15T18:09:25.198Z,54.42
2023-04-15T18:11:52.037Z,53.61
2023-04-15T18:14:32.966Z,53.71
2023-04-15T18:17:01.235Z,54.47
2023-04-15T18:19:28.071Z,54.80
2023-04-15T18:21:54.953Z,55.31
2023-04-15T18:24:22.831Z,56.16
2023-04-15T18:26:49.774Z,57.74
2023-04-15T18:29:16.743Z,57.67
2023-04-15T18:31:44.008Z,58.25
2023-04-15T18:34:10.987Z,58.10
2023-04-15T18:36:37.970Z,58.07
2023-04-15T18:39:05.610Z,59.46
2023-04-15T18:41:32.889Z,59.92
2023-04-15T18:43:59.808Z,59.65
2023-04-15T18:46:27.879Z,61.00
2023-04-15T18:48:54.852Z,60.89
2023-04-15T18:51:21.748Z,61.51
2023-04-15T18:53:49.038Z,62.31
2023-04-15T18:56:15.936Z,62.57
2023-04-15T18:59:10.107Z,62.32
2023-04-15T19:01:31.818Z,62.15
2023-04-15T19:03:58.991Z,61.59
2023-04-15T19:06:27.424Z,62.18
2023-04-15T19:08:54.865Z,62.35
2023-04-15T19:11:21.922Z,62.35
2023-04-15T19:13:48.760Z,62.78
2023-04-15T19:16:15.807Z,62.99
2023-04-15T19:18:43.357Z,64.46
2023-04-15T19:21:12.725Z,64.24
2023-04-15T19:23:39.945Z,64.69
2023-04-15T19:26:08.372Z,65.50
2023-04-15T19:28:35.315Z,65.67
2023-04-15T19:31:02.336Z,65.78
2023-04-15T19:33:31.597Z,65.67
2023-04-15T19:36:07.565Z,66.73
2023-04-15T19:38:36.170Z,67.35
2023-04-15T19:41:03.156Z,67.83
2023-04-15T19:43:31.079Z,68.23
2023-04-15T19:45:57.993Z,67.90
2023-04-15T19:48:25.574Z,66.67
2023-04-15T19:50:52.475Z,67.50
2023-04-15T19:53:19.413Z,67.31
2023-04-15T19:55:47.317Z,66.62
2023-04-15T19:58:14.546Z,65.78
2023-04-15T20:00:42.161Z,64.02
2023-04-15T20:03:09.408Z,63.68
2023-04-15T20:05:36.509Z,64.21
2023-04-15T20:08:03.721Z,63.44
2023-04-15T20:10:31.951Z,63.65
2023-04-15T20:12:59.270Z,63.66
2023-04-15T20:15:26.305Z,63.84
2023-04-15T20:17:53.512Z,63.99
2023-04-15T20:20:20.783Z,64.55
2023-04-15T20:22:48.199Z,65.18
2023-04-15T20:25:15.252Z,65.24
2023-04-15T20:27:42.122Z,64.78
2023-04-15T20:30:09.452Z,64.93
2023-04-15T20:32:36.520Z,64.31
2023-04-15T20:35:05.099Z,64.51
2023-04-15T20:37:33.747Z,64.23
2023-04-15T20:40:01.877Z,64.27
2023-04-15T20:42:33.213Z,64.17
2023-04-15T20:45:00.584Z,63.16
2023-04-15T20:47:27.510Z,62.84
2023-04-15T20:49:54.710Z,62.05
2023-04-15T20:52:21.963Z,62.16
2023-04-15T20:54:48.961Z,63.63
2023-04-15T20:57:16.041Z,64.32
2023-04-15T20:59:42.935Z,64.72
2023-04-15T21:02:10.007Z,66.13
2023-04-15T21:04:38.534Z,66.50
2023-04-15T21:07:05.418Z,66.84
2023-04-15T21:09:32.390Z,67.52
2023-04-15T21:12:01.734Z,67.82
2023-04-15T21:14:29.764Z,67.47
2023-04-15T21:17:00.033Z,67.71
2023-04-15T21:19:26.976Z,66.86
2023-04-15T21:21:53.829Z,64.74
2023-04-15T21:24:20.702Z,63.15
2023-04-15T21:26:47.798Z,63.05
2023-04-15T21:29:14.868Z,62.62
2023-04-15T21:31:42.180Z,63.50
2023-04-15T21:34:09.780Z,63.53
2023-04-15T21:36:37.880Z,63.19
2023-04-15T21:39:05.941Z,63.38
2023-04-15T21:41:32.998Z,63.20
2023-04-15T21:44:06.283Z,62.42
2023-04-15T21:46:35.560Z,62.69
2023-04-15T21:49:02.675Z,62.95
2023-04-15T21:51:29.646Z,63.69
2023-04-15T21:53:56.462Z,63.87
2023-04-15T21:56:24.475Z,63.21
2023-04-15T21:58:54.260Z,63.02
2023-04-15T22:01:21.154Z,63.44
2023-04-15T22:03:48.564Z,63.87
2023-04-15T22:06:15.980Z,63.79
2023-04-15T22:08:54.952Z,63.24
2023-04-15T22:11:27.497Z,63.41
2023-04-15T22:13:55.082Z,63.32
2023-04-15T22:16:22.045Z,62.72
2023-04-15T22:18:49.074Z,62.60
2023-04-15T22:21:16.399Z,62.72
2023-04-15T22:23:47.152Z,63.01
2023-04-15T22:26:14.114Z,62.77
2023-04-15T22:28:41.032Z,62.34
2023-04-15T22:31:08.023Z,62.12
2023-04-15T22:33:35.005Z,63.05
2023-04-15T22:36:02.033Z,63.46
2023-04-15T22:38:28.915Z,62.96
2023-04-15T22:40:55.999Z,63.32
2023-04-15T22:43:22.815Z,63.78
2023-04-15T22:46:00.373Z,64.28
2023-04-15T22:48:27.328Z,66.18
2023-04-15T22:50:54.126Z,66.84
2023-04-15T22:53:21.035Z,67.41
2023-04-15T22:55:48.784Z,66.89
2023-04-15T22:58:16.404Z,68.20
2023-04-15T23:00:43.287Z,68.28
2023-04-15T23:03:10.484Z,68.35
2023-04-15T23:05:37.613Z,68.70
2023-04-15T23:08:06.221Z,68.26
2023-04-15T23:10:33.358Z,68.74
2023-04-15T23:13:00.205Z,68.54
2023-04-15T23:15:27.046Z,68.24
2023-04-15T23:17:57.025Z,68.70
2023-04-15T23:20:23.953Z,69.13
2023-04-15T23:22:50.956Z,69.49
2023-04-15T23:25:18.319Z,69.65
2023-04-15T23:27:45.464Z,69.42
2023-04-15T23:30:12.396Z,68.91
2023-04-15T23:32:39.371Z,68.19
2023-04-15T23:35:06.726Z,67.66
2023-04-15T23:37:33.547Z,67.84
2023-04-15T23:40:00.727Z,67.95
2023-04-15T23:42:27.559Z,68.40
2023-04-15T23:44:54.425Z,69.17
2023-04-15T23:47:21.876Z,70.37
2023-04-15T23:49:48.701Z,69.81
2023-04-15T23:52:15.625Z,70.06
2023-04-15T23:54:42.622Z,70.01
2023-04-15T23:57:09.509Z,69.59
2023-04-15T23:59:36.851Z,70.00
